Time;durP1;ratioP1;P1;durP2;ratioP2;P2;SDS_P1;SDS_P2;PMS_P1;PMS_P2;Temp;Humidity;BMP_temperature;BMP_pressure;BME280_temperature;BME280_humidity;BME280_pressure;Samples;Min_cycle;Max_cycle;Signal;HPM_P1;HPM_P2
2022/05/18 00:01:47;;;;;;;48.15;36.53;;;;;;;;;;5006566;28;20037;-87
2022/05/18 00:04:13;;;;;;;51.35;35.40;;;;;;;;;;5026812;28;20310;-83
2022/05/18 00:06:39;;;;;;;49.20;34.15;;;;;;;;;;5026943;28;20033;-85
2022/05/18 00:09:05;;;;;;;50.95;35.85;;;;;;;;;;5024050;28;20049;-85
2022/05/18 00:11:32;;;;;;;47.08;34.28;;;;;;;;;;5006599;28;20045;-84
2022/05/18 00:13:59;;;;;;;48.72;35.38;;;;;;;;;;5033295;28;20559;-83
2022/05/18 00:16:35;;;;;;;49.20;35.38;;;;;;;;;;5025013;28;20211;-86
2022/05/18 00:19:01;;;;;;;45.20;36.08;;;;;;;;;;5005633;28;20048;-84
2022/05/18 00:21:28;;;;;;;54.97;35.45;;;;;;;;;;5025190;28;20041;-85
2022/05/18 00:23:58;;;;;;;45.63;34.75;;;;;;;;;;5022696;28;20148;-85
2022/05/18 00:26:25;;;;;;;46.97;35.95;;;;;;;;;;5023590;28;20589;-85
2022/05/18 00:28:51;;;;;;;46.75;35.85;;;;;;;;;;5025562;28;20132;-83
2022/05/18 00:31:18;;;;;;;49.97;36.17;;;;;;;;;;5040815;28;20266;-85
2022/05/18 00:33:44;;;;;;;49.75;35.15;;;;;;;;;;5028712;28;20044;-86
2022/05/18 00:36:10;;;;;;;44.53;35.10;;;;;;;;;;5029457;28;20037;-85
2022/05/18 00:38:42;;;;;;;44.95;33.45;;;;;;;;;;5025927;28;20037;-82
2022/05/18 00:41:09;;;;;;;52.92;35.35;;;;;;;;;;5022083;28;20424;-86
2022/05/18 00:43:36;;;;;;;47.00;34.00;;;;;;;;;;5024912;28;20179;-87
2022/05/18 00:46:04;;;;;;;48.45;34.15;;;;;;;;;;5023396;28;20139;-85
2022/05/18 00:48:31;;;;;;;48.58;34.92;;;;;;;;;;5025653;28;20382;-85
2022/05/18 00:50:59;;;;;;;52.80;36.95;;;;;;;;;;5023329;28;20037;-85
2022/05/18 00:53:28;;;;;;;53.75;37.22;;;;;;;;;;5026076;28;20041;-85
2022/05/18 00:55:56;;;;;;;51.92;38.50;;;;;;;;;;5022952;28;20042;-83
2022/05/18 00:58:28;;;;;;;49.50;38.72;;;;;;;;;;5024159;28;20053;-85
2022/05/18 01:00:54;;;;;;;57.28;39.25;;;;;;;;;;5037671;28;20048;-85
2022/05/18 01:03:25;;;;;;;52.13;38.42;;;;;;;;;;5008062;28;20050;-85
2022/05/18 01:05:58;;;;;;;47.42;36.55;;;;;;;;;;5005243;28;20419;-81
2022/05/18 01:08:30;;;;;;;53.20;34.47;;;;;;;;;;5007511;28;20081;-84
2022/05/18 01:11:05;;;;;;;41.15;29.70;;;;;;;;;;5025035;28;20078;-85
2022/05/18 01:13:31;;;;;;;36.85;25.85;;;;;;;;;;5004608;28;20056;-85
2022/05/18 01:15:57;;;;;;;30.55;23.73;;;;;;;;;;5025595;28;20045;-82
2022/05/18 01:18:27;;;;;;;33.28;23.92;;;;;;;;;;5024979;28;20069;-84
2022/05/18 01:20:53;;;;;;;32.88;23.40;;;;;;;;;;5022012;28;20090;-84
2022/05/18 01:23:31;;;;;;;35.53;23.05;;;;;;;;;;5026700;28;20081;-86
2022/05/18 01:26:12;;;;;;;33.78;23.00;;;;;;;;;;5024544;28;20128;-82
2022/05/18 01:28:43;;;;;;;36.25;22.75;;;;;;;;;;5032442;28;20489;-85
2022/05/18 01:31:11;;;;;;;32.88;23.80;;;;;;;;;;5030002;28;20067;-83
2022/05/18 01:33:46;;;;;;;30.27;22.52;;;;;;;;;;5034798;28;20107;-85
2022/05/18 01:36:24;;;;;;;29.05;22.85;;;;;;;;;;5005458;28;20048;-85
2022/05/18 01:38:51;;;;;;;28.67;23.05;;;;;;;;;;5019981;28;20486;-85
2022/05/18 01:41:21;;;;;;;30.33;22.42;;;;;;;;;;5023800;28;20037;-85
2022/05/18 01:44:00;;;;;;;27.17;21.98;;;;;;;;;;5010938;28;20052;-82
2022/05/18 01:46:28;;;;;;;31.40;22.05;;;;;;;;;;5036789;28;20026;-85
2022/05/18 01:48:54;;;;;;;27.90;21.13;;;;;;;;;;5013059;28;20814;-85
2022/05/18 01:51:29;;;;;;;27.58;22.10;;;;;;;;;;5028668;28;20153;-85
2022/05/18 01:53:56;;;;;;;27.02;20.83;;;;;;;;;;5026791;28;20049;-86
2022/05/18 01:56:22;;;;;;;33.65;23.50;;;;;;;;;;5025169;28;20043;-82
2022/05/18 01:58:51;;;;;;;34.45;23.38;;;;;;;;;;5026713;28;20045;-86
2022/05/18 02:01:17;;;;;;;31.23;25.48;;;;;;;;;;5022849;28;20038;-87
2022/05/18 02:03:43;;;;;;;46.20;27.35;;;;;;;;;;5023178;28;20045;-83
2022/05/18 02:06:09;;;;;;;38.28;29.23;;;;;;;;;;5023859;28;20061;-82
2022/05/18 02:08:35;;;;;;;44.13;32.63;;;;;;;;;;5024857;28;20060;-83
2022/05/18 02:11:01;;;;;;;46.63;34.03;;;;;;;;;;5031044;28;20048;-85
2022/05/18 02:13:28;;;;;;;50.00;35.92;;;;;;;;;;5022529;28;20123;-85
2022/05/18 02:15:54;;;;;;;41.22;34.08;;;;;;;;;;5027751;28;20485;-86
2022/05/18 02:18:20;;;;;;;41.72;32.97;;;;;;;;;;5023503;28;20107;-83
2022/05/18 02:20:46;;;;;;;53.20;34.47;;;;;;;;;;5024340;28;20030;-84
2022/05/18 02:23:12;;;;;;;49.55;34.65;;;;;;;;;;5026086;28;20168;-82
2022/05/18 02:25:39;;;;;;;47.15;34.47;;;;;;;;;;5029730;28;20052;-84
2022/05/18 02:28:06;;;;;;;48.53;34.25;;;;;;;;;;5027803;28;20049;-81
2022/05/18 02:30:40;;;;;;;40.17;33.13;;;;;;;;;;5033450;28;20065;-84
2022/05/18 02:33:12;;;;;;;42.75;33.05;;;;;;;;;;5006136;28;20393;-85
2022/05/18 02:35:40;;;;;;;39.42;29.17;;;;;;;;;;5031324;28;20044;-84
2022/05/18 02:38:07;;;;;;;30.65;26.42;;;;;;;;;;5006228;28;20049;-83
2022/05/18 02:40:33;;;;;;;33.75;24.73;;;;;;;;;;5024212;28;20050;-84
2022/05/18 02:42:59;;;;;;;31.33;23.63;;;;;;;;;;5024649;28;20455;-84
2022/05/18 02:45:46;;;;;;;34.13;25.27;;;;;;;;;;5024103;28;20448;-82
2022/05/18 02:48:12;;;;;;;31.70;24.15;;;;;;;;;;5012312;28;20501;-81
2022/05/18 02:50:38;;;;;;;29.23;22.90;;;;;;;;;;5023363;28;20044;-81
2022/05/18 02:53:04;;;;;;;35.17;23.38;;;;;;;;;;4995346;28;20208;-82
2022/05/18 02:58:15;;;;;;;28.02;21.98;;;;;;;;;;5025977;28;20045;-82
2022/05/18 03:00:41;;;;;;;30.15;21.48;;;;;;;;;;5030674;28;20416;-83
2022/05/18 03:03:07;;;;;;;28.23;20.42;;;;;;;;;;5021701;28;20203;-83
2022/05/18 03:05:33;;;;;;;25.38;20.33;;;;;;;;;;5025760;28;20053;-81
2022/05/18 03:07:59;;;;;;;26.10;19.20;;;;;;;;;;5019284;28;20513;-84
2022/05/18 03:10:25;;;;;;;23.63;18.92;;;;;;;;;;5028355;28;20041;-82
2022/05/18 03:12:51;;;;;;;25.67;18.75;;;;;;;;;;5005639;28;20135;-82
2022/05/18 03:15:17;;;;;;;25.20;19.02;;;;;;;;;;5023519;28;20045;-81
2022/05/18 03:17:44;;;;;;;22.25;18.77;;;;;;;;;;5022204;28;20041;-83
2022/05/18 03:25:45;;;;;;;27.30;17.75;;;;;;;;;;5025446;28;20045;-84
2022/05/18 03:28:11;;;;;;;25.85;17.75;;;;;;;;;;5018370;28;20091;-84
2022/05/18 03:30:37;;;;;;;23.17;17.50;;;;;;;;;;5025058;28;20041;-85
2022/05/18 03:33:04;;;;;;;21.45;18.13;;;;;;;;;;5028891;28;20037;-84
2022/05/18 03:35:42;;;;;;;23.38;18.17;;;;;;;;;;5022944;28;20095;-85
2022/05/18 03:38:11;;;;;;;21.48;17.33;;;;;;;;;;5002890;28;20097;-85
2022/05/18 03:40:38;;;;;;;23.00;18.27;;;;;;;;;;5004586;28;20049;-86
2022/05/18 03:43:04;;;;;;;30.20;18.60;;;;;;;;;;5005712;28;20163;-81
2022/05/18 03:45:33;;;;;;;22.15;18.40;;;;;;;;;;5022956;28;20048;-83
2022/05/18 03:47:59;;;;;;;27.45;18.48;;;;;;;;;;5025436;28;20053;-83
2022/05/18 03:50:28;;;;;;;25.05;18.38;;;;;;;;;;5026804;28;21034;-85
2022/05/18 03:52:54;;;;;;;25.70;19.15;;;;;;;;;;5021296;28;20073;-81
2022/05/18 03:55:24;;;;;;;25.52;18.35;;;;;;;;;;5025999;28;20091;-82
2022/05/18 03:57:51;;;;;;;26.00;18.48;;;;;;;;;;5005523;28;20034;-82
2022/05/18 04:00:17;;;;;;;31.73;18.65;;;;;;;;;;5022610;28;20049;-84
2022/05/18 04:02:43;;;;;;;21.13;18.45;;;;;;;;;;5005710;28;20045;-83
2022/05/18 04:05:11;;;;;;;27.27;19.75;;;;;;;;;;5002008;28;20041;-80
2022/05/18 04:07:37;;;;;;;22.08;18.65;;;;;;;;;;5022950;28;20045;-81
2022/05/18 04:10:04;;;;;;;26.30;19.48;;;;;;;;;;5026038;28;20420;-83
2022/05/18 04:12:30;;;;;;;34.55;19.67;;;;;;;;;;5024541;28;20052;-84
2022/05/18 04:15:09;;;;;;;29.27;18.70;;;;;;;;;;5022274;28;20053;-84
2022/05/18 04:17:35;;;;;;;29.55;18.70;;;;;;;;;;5021149;28;20373;-82
2022/05/18 04:20:03;;;;;;;21.65;18.27;;;;;;;;;;5024275;28;20485;-80
2022/05/18 04:22:31;;;;;;;27.13;17.88;;;;;;;;;;5023115;28;20045;-83
2022/05/18 04:25:01;;;;;;;28.20;18.35;;;;;;;;;;5023332;28;20076;-81
2022/05/18 04:27:28;;;;;;;22.25;17.60;;;;;;;;;;5024612;28;20037;-80
2022/05/18 04:29:55;;;;;;;22.63;18.08;;;;;;;;;;5021592;28;20048;-82
2022/05/18 04:32:21;;;;;;;21.77;18.35;;;;;;;;;;5021870;28;20048;-83
2022/05/18 04:34:48;;;;;;;20.67;17.52;;;;;;;;;;5026221;28;20072;-83
2022/05/18 04:37:18;;;;;;;23.85;17.63;;;;;;;;;;4987289;28;20349;-83
2022/05/18 04:39:44;;;;;;;26.67;17.92;;;;;;;;;;5022965;28;20386;-83
2022/05/18 04:42:14;;;;;;;19.55;17.00;;;;;;;;;;5017774;28;20947;-83
2022/05/18 04:44:40;;;;;;;20.90;16.45;;;;;;;;;;5035662;28;20057;-82
2022/05/18 04:47:06;;;;;;;19.45;16.70;;;;;;;;;;5029616;28;20078;-83
2022/05/18 04:49:35;;;;;;;23.85;16.85;;;;;;;;;;5040207;28;20049;-84
2022/05/18 04:52:14;;;;;;;20.40;15.98;;;;;;;;;;5032016;28;20040;-81
2022/05/18 04:54:40;;;;;;;20.92;15.93;;;;;;;;;;5024962;28;20132;-82
2022/05/18 04:57:12;;;;;;;20.02;15.32;;;;;;;;;;5025649;28;20076;-83
2022/05/18 04:59:45;;;;;;;18.25;14.60;;;;;;;;;;5020854;28;20240;-82
2022/05/18 05:02:21;;;;;;;19.75;15.32;;;;;;;;;;5033703;28;20493;-82
2022/05/18 05:04:47;;;;;;;18.35;14.43;;;;;;;;;;5024722;28;20056;-83
2022/05/18 05:07:22;;;;;;;20.17;14.30;;;;;;;;;;5028147;28;20041;-80
2022/05/18 05:09:48;;;;;;;17.35;13.63;;;;;;;;;;5029667;28;20057;-83
2022/05/18 05:12:14;;;;;;;19.02;13.32;;;;;;;;;;5027532;28;20045;-82
2022/05/18 05:14:41;;;;;;;19.67;13.45;;;;;;;;;;5026080;28;20044;-80
2022/05/18 05:17:08;;;;;;;17.17;13.05;;;;;;;;;;5026739;28;20647;-80
2022/05/18 05:19:37;;;;;;;20.08;13.25;;;;;;;;;;4991139;28;20076;-80
2022/05/18 05:22:04;;;;;;;18.40;13.55;;;;;;;;;;5026951;28;20096;-82
2022/05/18 05:24:30;;;;;;;16.70;13.38;;;;;;;;;;5028556;28;20473;-83
2022/05/18 05:26:56;;;;;;;16.70;12.63;;;;;;;;;;5023158;28;20120;-80
2022/05/18 05:29:22;;;;;;;16.80;12.93;;;;;;;;;;5028729;28;20041;-80
2022/05/18 05:31:49;;;;;;;17.95;12.38;;;;;;;;;;5024132;28;20061;-83
2022/05/18 05:34:23;;;;;;;16.55;11.85;;;;;;;;;;5023451;28;20110;-84
2022/05/18 05:36:49;;;;;;;16.38;11.90;;;;;;;;;;5007243;28;20430;-82
2022/05/18 05:39:15;;;;;;;15.00;12.07;;;;;;;;;;5025779;28;20509;-82
2022/05/18 05:41:45;;;;;;;19.85;13.02;;;;;;;;;;5025190;28;20087;-79
2022/05/18 05:44:11;;;;;;;15.82;11.57;;;;;;;;;;5007994;28;20050;-85
2022/05/18 05:46:37;;;;;;;14.82;11.50;;;;;;;;;;5025735;28;20128;-80
2022/05/18 05:49:03;;;;;;;21.65;12.90;;;;;;;;;;5024434;28;20041;-79
2022/05/18 05:51:29;;;;;;;14.48;12.45;;;;;;;;;;5026431;28;20040;-79
2022/05/18 05:53:55;;;;;;;17.30;12.23;;;;;;;;;;5024880;28;20045;-78
2022/05/18 05:56:22;;;;;;;19.75;12.60;;;;;;;;;;5027320;28;20076;-83
2022/05/18 05:58:49;;;;;;;14.73;12.65;;;;;;;;;;5035611;28;20078;-81
2022/05/18 06:01:17;;;;;;;17.33;12.80;;;;;;;;;;5045987;28;20052;-79
2022/05/18 06:03:43;;;;;;;16.63;11.73;;;;;;;;;;5030794;28;20029;-78
2022/05/18 06:06:10;;;;;;;20.30;12.27;;;;;;;;;;5029777;28;20054;-79
2022/05/18 06:08:36;;;;;;;16.30;12.50;;;;;;;;;;5030486;28;20110;-80
2022/05/18 06:11:03;;;;;;;15.18;12.48;;;;;;;;;;5029986;28;20128;-81
2022/05/18 06:13:33;;;;;;;16.83;12.18;;;;;;;;;;5032896;28;20501;-79
2022/05/18 06:15:59;;;;;;;15.18;11.80;;;;;;;;;;5021016;28;20034;-85
2022/05/18 06:18:30;;;;;;;16.33;12.73;;;;;;;;;;5033602;28;20046;-80
2022/05/18 06:21:02;;;;;;;15.82;11.80;;;;;;;;;;5030280;28;20069;-79
2022/05/18 06:23:29;;;;;;;12.98;11.55;;;;;;;;;;5029072;28;20095;-79
2022/05/18 06:25:59;;;;;;;15.13;11.98;;;;;;;;;;5028852;28;20052;-80
2022/05/18 06:28:25;;;;;;;20.48;12.57;;;;;;;;;;5029636;28;20109;-79
2022/05/18 06:30:55;;;;;;;14.07;12.13;;;;;;;;;;5027873;28;20386;-78
2022/05/18 06:33:21;;;;;;;17.70;13.45;;;;;;;;;;5010843;28;20136;-79
2022/05/18 06:35:50;;;;;;;16.27;11.80;;;;;;;;;;5028596;28;20049;-81
2022/05/18 06:38:16;;;;;;;17.20;12.13;;;;;;;;;;5028610;28;20050;-80
2022/05/18 06:43:29;;;;;;;17.02;11.63;;;;;;;;;;5028511;28;20049;-80
2022/05/18 06:45:55;;;;;;;20.77;12.20;;;;;;;;;;5028693;28;20144;-83
2022/05/18 06:48:21;;;;;;;14.63;11.35;;;;;;;;;;5025996;28;20144;-81
2022/05/18 06:50:47;;;;;;;14.48;11.23;;;;;;;;;;5028922;28;20390;-83
2022/05/18 06:53:14;;;;;;;12.63;10.55;;;;;;;;;;5027120;28;20065;-86
2022/05/18 06:55:40;;;;;;;16.92;10.80;;;;;;;;;;5028512;28;20052;-82
2022/05/18 06:58:06;;;;;;;19.27;11.65;;;;;;;;;;5029585;28;20142;-85
2022/05/18 07:00:33;;;;;;;15.50;10.85;;;;;;;;;;5048464;28;20049;-87
2022/05/18 07:02:59;;;;;;;13.35;10.88;;;;;;;;;;5030925;28;20116;-86
2022/05/18 07:05:25;;;;;;;18.00;11.27;;;;;;;;;;5028587;28;20119;-81
2022/05/18 07:07:51;;;;;;;14.02;11.40;;;;;;;;;;5023973;28;20069;-82
2022/05/18 07:10:17;;;;;;;15.60;11.38;;;;;;;;;;4989580;28;20476;-86
2022/05/18 07:12:43;;;;;;;13.50;11.60;;;;;;;;;;5008962;28;20056;-81
2022/05/18 07:15:09;;;;;;;15.20;12.15;;;;;;;;;;5008591;28;20107;-80
2022/05/18 07:17:35;;;;;;;16.77;12.90;;;;;;;;;;5007354;28;20037;-84
2022/05/18 07:20:03;;;;;;;17.45;12.30;;;;;;;;;;5007283;28;20363;-79
2022/05/18 07:22:29;;;;;;;15.15;11.60;;;;;;;;;;5008827;28;20061;-85
2022/05/18 07:24:59;;;;;;;15.95;12.27;;;;;;;;;;5011196;28;20056;-85
2022/05/18 07:27:26;;;;;;;14.95;11.73;;;;;;;;;;4993271;28;20409;-79
2022/05/18 07:29:52;;;;;;;16.30;11.20;;;;;;;;;;5028348;28;20046;-85
2022/05/18 07:32:18;;;;;;;22.35;11.15;;;;;;;;;;5027460;28;20061;-85
2022/05/18 07:34:44;;;;;;;19.60;11.70;;;;;;;;;;5028776;28;20449;-80
2022/05/18 07:37:11;;;;;;;13.40;11.70;;;;;;;;;;5027597;28;20041;-83
2022/05/18 07:39:37;;;;;;;15.50;11.45;;;;;;;;;;5027229;28;20502;-81
2022/05/18 07:42:05;;;;;;;18.90;12.15;;;;;;;;;;5028050;28;20075;-86
2022/05/18 07:44:32;;;;;;;16.45;11.77;;;;;;;;;;5001360;28;20053;-86
2022/05/18 07:46:58;;;;;;;19.33;12.27;;;;;;;;;;5021589;28;20049;-85
2022/05/18 07:49:24;;;;;;;17.95;12.07;;;;;;;;;;5007053;28;20061;-86
2022/05/18 07:51:50;;;;;;;15.35;12.43;;;;;;;;;;5038336;28;20397;-84
2022/05/18 07:54:17;;;;;;;18.33;12.90;;;;;;;;;;5027048;28;20048;-87
2022/05/18 07:56:43;;;;;;;18.35;12.70;;;;;;;;;;5028139;28;20053;-79
2022/05/18 07:59:11;;;;;;;17.98;12.70;;;;;;;;;;5026984;28;20049;-85
2022/05/18 08:01:39;;;;;;;14.50;11.18;;;;;;;;;;5002809;28;20397;-86
2022/05/18 08:04:05;;;;;;;18.65;12.75;;;;;;;;;;5046672;28;20057;-81
2022/05/18 08:06:33;;;;;;;19.17;12.40;;;;;;;;;;5047254;28;20467;-84
2022/05/18 08:08:59;;;;;;;22.63;12.60;;;;;;;;;;5046191;28;20048;-80
2022/05/18 08:15:05;;;;;;;15.93;12.15;;;;;;;;;;5027609;28;20049;-82
2022/05/18 08:17:15;;;;;;;21.00;12.57;;;;;;;;;;5025259;28;20045;-80
2022/05/18 08:19:41;;;;;;;17.52;11.73;;;;;;;;;;5025623;28;20045;-78
2022/05/18 08:22:07;;;;;;;18.50;12.55;;;;;;;;;;5026061;28;20049;-80
2022/05/18 08:24:36;;;;;;;23.20;12.35;;;;;;;;;;5024663;28;20054;-82
2022/05/18 08:27:02;;;;;;;15.45;11.48;;;;;;;;;;5026707;28;20181;-82
2022/05/18 08:29:28;;;;;;;22.17;11.65;;;;;;;;;;5024743;28;20057;-85
2022/05/18 08:31:56;;;;;;;19.52;10.98;;;;;;;;;;5025645;28;20129;-86
2022/05/18 08:34:22;;;;;;;16.75;11.57;;;;;;;;;;5025308;28;20501;-83
2022/05/18 08:36:49;;;;;;;15.23;11.35;;;;;;;;;;5026870;28;20470;-85
2022/05/18 08:39:16;;;;;;;16.33;11.50;;;;;;;;;;5026980;28;20439;-80
2022/05/18 08:41:45;;;;;;;15.35;9.23;;;;;;;;;;5025519;28;20076;-80
2022/05/18 08:44:20;;;;;;;18.33;9.35;;;;;;;;;;5027010;28;20244;-85
2022/05/18 08:47:09;;;;;;;15.70;7.88;;;;;;;;;;5024968;28;20432;-85
2022/05/18 08:49:54;;;;;;;11.60;8.15;;;;;;;;;;5003146;28;20058;-81
2022/05/18 08:52:34;;;;;;;12.43;6.18;;;;;;;;;;4989487;28;20613;-83
2022/05/18 08:55:10;;;;;;;11.52;6.75;;;;;;;;;;5006192;28;20038;-82
2022/05/18 08:57:41;;;;;;;9.95;6.65;;;;;;;;;;5007336;28;20042;-82
2022/05/18 09:00:20;;;;;;;10.38;6.72;;;;;;;;;;5040192;28;20041;-80
2022/05/18 09:02:47;;;;;;;10.32;6.85;;;;;;;;;;5041489;28;20415;-86
2022/05/18 09:05:46;;;;;;;12.73;6.63;;;;;;;;;;5045941;28;20048;-84
2022/05/18 09:08:17;;;;;;;7.97;6.22;;;;;;;;;;5021915;28;20060;-80
2022/05/18 09:10:53;;;;;;;13.00;6.90;;;;;;;;;;5046780;28;20049;-80
2022/05/18 09:13:20;;;;;;;11.23;6.38;;;;;;;;;;5045712;28;20060;-86
2022/05/18 09:15:49;;;;;;;17.20;6.32;;;;;;;;;;5044498;28;20817;-84
2022/05/18 09:18:21;;;;;;;13.77;5.68;;;;;;;;;;5031287;28;20049;-80
2022/05/18 09:20:57;;;;;;;12.48;4.93;;;;;;;;;;5025493;28;20596;-83
2022/05/18 09:23:33;;;;;;;11.25;5.80;;;;;;;;;;5027507;28;20056;-83
2022/05/18 09:26:07;;;;;;;15.63;6.35;;;;;;;;;;5024426;28;20080;-87
2022/05/18 09:28:54;;;;;;;8.25;4.60;;;;;;;;;;5026685;28;20419;-87
2022/05/18 09:31:39;;;;;;;11.52;5.75;;;;;;;;;;5025894;28;20068;-83
2022/05/18 09:34:16;;;;;;;7.55;4.50;;;;;;;;;;5030100;28;20599;-78
2022/05/18 09:36:51;;;;;;;7.28;4.07;;;;;;;;;;5032947;28;20053;-84
2022/05/18 09:39:19;;;;;;;10.18;5.22;;;;;;;;;;5031999;28;20087;-80
2022/05/18 09:41:47;;;;;;;6.95;4.10;;;;;;;;;;5015541;28;20081;-84
2022/05/18 09:44:26;;;;;;;6.15;3.65;;;;;;;;;;5032355;28;20045;-79
2022/05/18 09:46:52;;;;;;;6.60;2.72;;;;;;;;;;5032303;28;20470;-80
2022/05/18 09:49:27;;;;;;;5.05;2.42;;;;;;;;;;5031357;28;20045;-80
2022/05/18 09:51:54;;;;;;;3.85;2.35;;;;;;;;;;5032368;28;20048;-80
2022/05/18 09:54:20;;;;;;;5.82;2.50;;;;;;;;;;5032855;28;20339;-80
2022/05/18 09:56:55;;;;;;;9.90;3.85;;;;;;;;;;5032940;28;20053;-81
2022/05/18 09:59:25;;;;;;;4.43;2.85;;;;;;;;;;5044049;28;20099;-82
2022/05/18 10:07:45;;;;;;;6.38;3.60;;;;;;;;;;5012499;28;20398;-84
2022/05/18 10:10:16;;;;;;;7.80;3.67;;;;;;;;;;5011588;28;20588;-84
2022/05/18 10:12:48;;;;;;;6.70;3.28;;;;;;;;;;5012488;28;20057;-83
2022/05/18 10:15:33;;;;;;;7.57;3.17;;;;;;;;;;5012031;28;20050;-82
2022/05/18 10:18:10;;;;;;;8.50;3.00;;;;;;;;;;5012301;28;20080;-84
2022/05/18 10:20:36;;;;;;;6.72;2.72;;;;;;;;;;5012108;28;20105;-82
2022/05/18 10:23:03;;;;;;;7.38;2.80;;;;;;;;;;5029949;28;20103;-84
2022/05/18 10:25:32;;;;;;;6.57;2.50;;;;;;;;;;5015456;28;20041;-84
2022/05/18 10:28:03;;;;;;;3.97;2.50;;;;;;;;;;5014763;28;20045;-79
2022/05/18 10:30:32;;;;;;;7.03;3.45;;;;;;;;;;5014885;28;20382;-83
2022/05/18 10:33:08;;;;;;;9.80;3.33;;;;;;;;;;5014500;28;20061;-78
2022/05/18 10:35:36;;;;;;;8.82;3.83;;;;;;;;;;5014327;28;20056;-83
2022/05/18 10:38:03;;;;;;;7.63;2.90;;;;;;;;;;5018726;28;20513;-80
2022/05/18 10:40:30;;;;;;;11.40;3.13;;;;;;;;;;4999998;28;20092;-83
2022/05/18 10:43:12;;;;;;;9.40;3.30;;;;;;;;;;5020364;28;20053;-85
2022/05/18 10:45:38;;;;;;;4.65;3.92;;;;;;;;;;5040199;28;20045;-81
2022/05/18 10:48:07;;;;;;;6.43;3.70;;;;;;;;;;5008563;28;20069;-79
2022/05/18 10:50:37;;;;;;;9.13;3.95;;;;;;;;;;5046011;28;20045;-82
2022/05/18 10:53:15;;;;;;;6.78;3.42;;;;;;;;;;5027057;28;20440;-81
2022/05/18 10:56:03;;;;;;;8.35;4.10;;;;;;;;;;5033475;28;20509;-80
2022/05/18 10:58:41;;;;;;;8.25;3.88;;;;;;;;;;5035007;28;20045;-84
2022/05/18 11:01:17;;;;;;;9.15;3.90;;;;;;;;;;5022700;28;20037;-85
2022/05/18 11:03:49;;;;;;;7.38;4.00;;;;;;;;;;5049882;28;20075;-83
2022/05/18 11:06:20;;;;;;;10.27;4.20;;;;;;;;;;5050400;28;20036;-80
2022/05/18 11:08:47;;;;;;;7.35;3.92;;;;;;;;;;5033487;28;20045;-85
2022/05/18 11:11:50;;;;;;;6.50;4.22;;;28.90;99.90;;;;;;5028440;28;20048;-80
2022/05/18 11:14:55;;;;;;;8.30;3.90;;;;;;;;;;5028499;28;20038;-85
2022/05/18 11:17:33;;;;;;;9.40;3.80;;;;;;;;;;4986661;28;20046;-83
2022/05/18 11:20:05;;;;;;;10.52;4.70;;;;;;;;;;4987446;28;20061;-85
2022/05/18 11:22:36;;;;;;;14.90;9.70;;;;;;;;;;5013362;28;20064;-84
2022/05/18 11:25:21;;;;;;;15.70;9.80;;;28.90;99.90;;;;;;5029549;28;20311;-81
2022/05/18 11:27:52;;;;;;;15.02;10.25;;;;;;;;;;5029567;28;20115;-84
2022/05/18 11:30:37;;;;;;;16.27;11.45;;;;;;;;;;5027862;28;20037;-82
2022/05/18 11:33:27;;;;;;;19.17;10.75;;;;;;;;;;5029039;28;20128;-85
2022/05/18 11:35:59;;;;;;;18.33;11.25;;;;;;;;;;5029252;28;20037;-85
2022/05/18 11:38:26;;;;;;;16.00;11.73;;;;;;;;;;5012842;28;20050;-84
2022/05/18 11:41:15;;;;;;;12.93;11.25;;;;;;;;;;5030125;28;20038;-85
2022/05/18 11:44:03;;;;;;;13.23;10.98;;;;;;;;;;4994061;28;20541;-85
2022/05/18 11:46:47;;;;;;;13.25;9.75;;;;;;;;;;5030935;28;20049;-82
2022/05/18 11:49:13;;;;;;;17.67;10.48;;;;;;;;;;5032314;28;20412;-82
2022/05/18 11:51:39;;;;;;;20.30;12.52;;;;;;;;;;5030133;28;20132;-83
2022/05/18 11:54:12;;;;;;;15.05;11.48;;;;;;;;;;5029598;28;20121;-85
2022/05/18 11:56:51;;;;;;;16.88;11.88;;;;;;;;;;5030229;28;20056;-84
2022/05/18 12:02:10;;;;;;;17.48;12.18;;;;;;;;;;5035688;28;20075;-82
2022/05/18 12:04:45;;;;;;;19.25;11.38;;;;;;;;;;5030850;28;20052;-86
2022/05/18 12:07:11;;;;;;;15.30;10.80;;;;;;;;;;5029648;28;20052;-84
2022/05/18 12:09:38;;;;;;;21.38;12.70;;;;;;;;;;5029171;28;20490;-86
2022/05/18 12:12:26;;;;;;;17.85;11.80;;;;;;;;;;5031561;28;20044;-83
2022/05/18 12:15:11;;;;;;;19.05;13.10;;;;;;;;;;5030296;28;20052;-84
2022/05/18 12:17:43;;;;;;;19.55;13.05;;;;;;;;;;5028138;28;20962;-84
2022/05/18 12:20:19;;;;;;;17.13;11.82;;;;;;;;;;5028175;28;20095;-83
2022/05/18 12:22:48;;;;;;;14.82;11.20;;;;;;;;;;5026889;28;20061;-85
2022/05/18 12:25:15;;;;;;;22.48;13.10;;;;;;;;;;5028777;28;20038;-81
2022/05/18 12:27:42;;;;;;;18.30;13.50;;;;;;;;;;5029913;28;20091;-77
2022/05/18 12:30:09;;;;;;;15.43;12.57;;;;;;;;;;5026904;28;20047;-85
2022/05/18 12:32:36;;;;;;;14.02;12.52;;;;;;;;;;5027216;28;20049;-76
2022/05/18 12:35:11;;;;;;;20.48;13.73;;;;;;;;;;5025532;28;20052;-80
2022/05/18 12:37:52;;;;;;;16.92;13.65;;;;;;;;;;5027011;28;20552;-77
2022/05/18 12:40:24;;;;;;;18.95;14.88;;;;;;;;;;5008933;28;20076;-78
2022/05/18 12:43:03;;;;;;;16.97;14.83;;;;;;;;;;5008243;28;20049;-78
2022/05/18 12:45:29;;;;;;;19.95;15.20;;;;;;;;;;5027124;28;20306;-82
2022/05/18 12:48:12;;;;;;;20.98;15.85;;;;;;;;;;4991643;28;20136;-76
2022/05/18 12:50:38;;;;;;;;;;;;;;;;;;5022528;28;20443;-81
2022/05/18 12:53:12;;;;;;;22.38;16.80;;;;;;;;;;5008464;28;19921;-77
2022/05/18 12:55:45;;;;;;;21.40;14.85;;;;;;;;;;5008785;28;20083;-75
2022/05/18 12:58:11;;;;;;;23.35;16.63;;;;;;;;;;5011063;28;21015;-81
2022/05/18 13:00:56;;;;;;;22.95;16.42;;;;;;;;;;5044582;28;20037;-80
2022/05/18 13:03:45;;;;;;;27.75;16.38;;;;;;;;;;5014009;28;20049;-75
2022/05/18 13:06:16;;;;;;;24.80;17.17;;;;;;;;;;5006044;28;20061;-79
2022/05/18 13:08:53;;;;;;;21.92;17.02;;;;;;;;;;5008146;28;20409;-75
2022/05/18 13:11:19;;;;;;;21.20;17.13;;;;;;;;;;5027796;28;20033;-75
2022/05/18 13:13:57;;;;;;;21.60;16.77;;;;;;;;;;5027866;28;20128;-80
2022/05/18 13:16:55;;;;;;;24.60;19.13;;;;;;;;;;5032327;28;20068;-82
2022/05/18 13:19:25;;;;;;;28.77;19.83;;;;;;;;;;4986475;28;20064;-77
2022/05/18 13:21:57;;;;;;;25.17;20.67;;;;;;;;;;5008871;28;20124;-83
2022/05/18 13:24:31;;;;;;;24.88;21.48;;;;;;;;;;5009174;28;20049;-86
2022/05/18 13:27:01;;;;;;;32.88;23.52;;;;;;;;;;5026407;28;20607;-75
2022/05/18 13:29:30;;;;;;;29.92;22.33;;;26.30;99.90;;;;;;5008746;28;20097;-76
2022/05/18 13:32:05;;;;;;;33.20;24.35;;;;;;;;;;5008333;28;20049;-75
2022/05/18 13:34:45;;;;;;;37.85;26.30;;;26.40;99.90;;;;;;5023550;28;20115;-78
2022/05/18 13:37:11;;;;;;;36.05;26.38;;;;;;;;;;5008341;28;20065;-77
2022/05/18 13:39:39;;;;;;;31.42;26.33;;;;;;;;;;5025220;28;20421;-78
2022/05/18 13:42:13;;;;;;;36.78;25.08;;;;;;;;;;5026364;28;20609;-76
2022/05/18 13:44:41;;;;;;;36.80;26.60;;;26.10;99.90;;;;;;5025414;28;20049;-79
2022/05/18 13:47:10;;;;;;;31.02;23.05;;;;;;;;;;5025572;28;20135;-76
2022/05/18 13:49:38;;;;;;;30.73;22.77;;;;;;;;;;5024902;28;20052;-77
2022/05/18 13:52:07;;;;;;;31.38;23.95;;;;;;;;;;5023186;28;20104;-79
2022/05/18 13:54:37;;;;;;;32.25;23.10;;;;;;;;;;5008071;28;20044;-78
2022/05/18 13:57:05;;;;;;;34.25;22.90;;;;;;;;;;5022369;28;20068;-83
2022/05/18 13:59:33;;;;;;;32.17;20.90;;;;;;;;;;5038730;28;20041;-80
2022/05/18 14:02:01;;;;;;;24.90;17.48;;;;;;;;;;5034882;28;20103;-84
2022/05/18 14:04:35;;;;;;;25.40;17.75;;;;;;;;;;5025334;28;20045;-79
2022/05/18 14:07:01;;;;;;;26.40;17.70;;;;;;;;;;5025886;28;20400;-77
2022/05/18 14:09:28;;;;;;;26.35;20.60;;;;;;;;;;5024734;28;20029;-81
2022/05/18 14:11:57;;;;;;;30.05;19.35;;;;;;;;;;5019960;28;20034;-82
2022/05/18 14:14:28;;;;;;;24.35;18.88;;;;;;;;;;5022866;28;20501;-83
2022/05/18 14:16:59;;;;;;;27.05;20.00;;;;;;;;;;5025833;28;20052;-86
2022/05/18 14:19:41;;;;;;;25.88;19.55;;;;;;;;;;5010215;28;20068;-76
2022/05/18 14:22:08;;;;;;;36.03;22.92;;;;;;;;;;5011607;28;20107;-78
2022/05/18 14:24:40;;;;;;;30.90;22.42;;;;;;;;;;5010774;28;20045;-78
2022/05/18 14:27:10;;;;;;;34.70;23.35;;;;;;;;;;5028965;28;20821;-77
2022/05/18 14:29:37;;;;;;;36.55;22.95;;;;;;;;;;5028568;28;20488;-81
2022/05/18 14:32:06;;;;;;;34.70;22.50;;;;;;;;;;5028408;28;20045;-81
2022/05/18 14:34:45;;;;;;;34.47;22.90;;;24.90;99.90;;;;;;4994761;28;20041;-79
2022/05/18 14:37:14;;;;;;;30.17;21.60;;;;;;;;;;5029206;28;20033;-77
2022/05/18 14:39:46;;;;;;;31.55;22.20;;;;;;;;;;5028851;28;20088;-80
2022/05/18 14:42:12;;;;;;;38.85;22.23;;;;;;;;;;5027425;28;20088;-78
2022/05/18 14:44:42;;;;;;;30.55;22.02;;;;;;;;;;5005837;28;20044;-77
2022/05/18 14:47:13;;;;;;;30.15;20.75;;;;;;;;;;5009210;28;20066;-75
2022/05/18 14:49:40;;;;;;;30.95;20.35;;;;;;;;;;5024991;28;20045;-77
2022/05/18 14:52:08;;;;;;;27.88;21.27;;;;;;;;;;5027063;28;20033;-83
2022/05/18 14:54:36;;;;;;;31.25;20.85;;;;;;;;;;5028290;28;20057;-76
2022/05/18 14:57:05;;;;;;;32.47;22.20;;;;;;;;;;5028522;28;20049;-83
2022/05/18 14:59:35;;;;;;;29.67;22.90;;;;;;;;;;5024239;28;20135;-75